HomeShort term forecast

Short term forecast

Graphical weather forecast for the next 48 hours for Montreal:
Short term forecast
This weather forecast is automatically refreshed every 3 hours.

Hourly Experimental Forecast for the next 48 hours

Overall summary: Mostly cloudy throughout the day.

 Date & Hour   Temp   Feel   Baro   Hum   Speed & Bearing   Wind Gust   Precip.%   Precip.   Visibility   Cloud cover   Conditions 
 17/07/2019 - 09:00  24.8°C  25.3°C  1010.0 hPa  77%  12.7 km/h   24.2 km/h  0%  --  16.1km  100%  Overcast 
 17/07/2019 - 10:00  26.0°C  26.5°C  1010.2 hPa  72%  11.3 km/h   18.9 km/h  0%  --  16.1km  100%  Overcast 
 17/07/2019 - 11:00  27.0°C  28.7°C  1010.6 hPa  68%  11.7 km/h   16.9 km/h  0%  --  16.1km  86%  Mostly Cloudy 
 17/07/2019 - 12:00  27.7°C  29.5°C  1010.6 hPa  65%  12.3 km/h   16.2 km/h  3%  0.03 mm/h  16.1km  95%  Overcast 
 17/07/2019 - 13:00  28.9°C  30.9°C  1010.6 hPa  60%  13.1 km/h   17.4 km/h  4%  0.17 mm/h  16.1km  93%  Overcast 
 17/07/2019 - 14:00  29.5°C  31.4°C  1010.6 hPa  57%  13.6 km/h   18.7 km/h  6%  0.28 mm/h  16.1km  91%  Overcast 
 17/07/2019 - 15:00  29.7°C  31.5°C  1010.5 hPa  56%  12.6 km/h   18.2 km/h  5%  0.26 mm/h  16.1km  93%  Overcast 
 17/07/2019 - 16:00  28.8°C  30.5°C  1010.7 hPa  58%  12.3 km/h   20.7 km/h  7%  0.36 mm/h  16.1km  96%  Overcast 
 17/07/2019 - 17:00  27.8°C  29.3°C  1011.0 hPa  61%  10.2 km/h   19.5 km/h  16%  0.94 mm/h  16.0km  97%  Overcast 
 17/07/2019 - 18:00  26.8°C  27.9°C  1011.4 hPa  62%  10.0 km/h   19.3 km/h  7%  0.33 mm/h  16.1km  78%  Mostly Cloudy 
 17/07/2019 - 19:00  26.2°C  26.4°C  1012.1 hPa  61%  12.2 km/h   23.0 km/h  4%  0.10 mm/h  16.1km  59%  Mostly Cloudy 
 17/07/2019 - 20:00  25.0°C  25.2°C  1012.7 hPa  62%  12.3 km/h   24.4 km/h  3%  0.03 mm/h  16.1km  49%  Partly Cloudy 
 17/07/2019 - 21:00  23.8°C  23.9°C  1013.2 hPa  62%  11.7 km/h   25.8 km/h  2%  0.01 mm/h  16.1km  38%  Partly Cloudy 
 17/07/2019 - 22:00  22.7°C  22.7°C  1013.9 hPa  61%  11.7 km/h   26.0 km/h  0%  --  16.1km  46%  Partly Cloudy 
 17/07/2019 - 23:00  21.8°C  21.8°C  1014.4 hPa  60%  11.8 km/h   27.8 km/h  0%  --  16.1km  16%  Partly Cloudy 
 18/07/2019 - 00:00  20.9°C  20.9°C  1014.8 hPa  60%  11.9 km/h   28.9 km/h  0%  --  16.1km  10%  Clear 
 18/07/2019 - 01:00  20.2°C  20.2°C  1015.1 hPa  60%  11.9 km/h   29.3 km/h  0%  --  16.1km  4%  Clear 
 18/07/2019 - 02:00  19.4°C  19.4°C  1015.3 hPa  61%  12.1 km/h   30.1 km/h  0%  --  16.1km  1%  Clear 
 18/07/2019 - 03:00  18.3°C  18.3°C  1015.5 hPa  63%  12.6 km/h   32.1 km/h  0%  --  16.1km  7%  Clear 
 18/07/2019 - 04:00  17.2°C  17.2°C  1015.7 hPa  65%  13.2 km/h   34.3 km/h  0%  --  16.1km  16%  Partly Cloudy 
 18/07/2019 - 05:00  16.4°C  16.4°C  1015.9 hPa  68%  13.7 km/h   35.6 km/h  0%  --  16.1km  22%  Partly Cloudy 
 18/07/2019 - 06:00  16.6°C  16.6°C  1016.3 hPa  67%  14.2 km/h   35.1 km/h  0%  --  16.1km  29%  Partly Cloudy 
 18/07/2019 - 07:00  17.3°C  17.3°C  1016.7 hPa  64%  14.6 km/h   33.5 km/h  0%  --  16.1km  34%  Partly Cloudy 
 18/07/2019 - 08:00  18.4°C  18.4°C  1016.9 hPa  61%  14.8 km/h   31.2 km/h  0%  --  16.1km  35%  Partly Cloudy 
 18/07/2019 - 09:00  19.9°C  19.9°C  1016.7 hPa  57%  14.7 km/h   28.1 km/h  0%  --  16.1km  26%  Partly Cloudy 
 18/07/2019 - 10:00  21.7°C  21.7°C  1016.3 hPa  52%  14.3 km/h   24.3 km/h  0%  --  16.1km  12%  Clear 
 18/07/2019 - 11:00  23.3°C  23.3°C  1015.9 hPa  48%  13.7 km/h   21.0 km/h  0%  --  16.1km  3%  Clear 
 18/07/2019 - 12:00  24.8°C  24.8°C  1015.3 hPa  45%  13.2 km/h   18.3 km/h  0%  --  16.1km  7%  Clear 
 18/07/2019 - 13:00  26.0°C  26.0°C  1014.7 hPa  43%  12.5 km/h   16.0 km/h  0%  --  16.1km  15%  Partly Cloudy 
 18/07/2019 - 14:00  27.3°C  27.3°C  1014.0 hPa  41%  11.8 km/h   14.2 km/h  0%  --  16.1km  22%  Partly Cloudy 
 18/07/2019 - 15:00  28.1°C  28.1°C  1013.3 hPa  41%  10.9 km/h   13.0 km/h  0%  --  16.1km  27%  Partly Cloudy 
 18/07/2019 - 16:00  28.9°C  28.9°C  1012.5 hPa  41%  10.0 km/h   12.3 km/h  0%  --  16.1km  31%  Partly Cloudy 
 18/07/2019 - 17:00  28.9°C  28.9°C  1011.9 hPa  43%  9.3 km/h   12.5 km/h  1%  0.01 mm/h  16.1km  34%  Partly Cloudy 
 18/07/2019 - 18:00  28.4°C  28.5°C  1011.6 hPa  46%  8.5 km/h   14.2 km/h  1%  0.01 mm/h  16.1km  33%  Partly Cloudy 
 18/07/2019 - 19:00  27.6°C  28.0°C  1011.4 hPa  51%  7.9 km/h   17.0 km/h  0%  --  16.1km  31%  Partly Cloudy 
 18/07/2019 - 20:00  26.6°C  27.3°C  1011.2 hPa  55%  7.8 km/h   19.5 km/h  0%  --  16.1km  32%  Partly Cloudy 
 18/07/2019 - 21:00  25.3°C  25.4°C  1011.0 hPa  60%  8.6 km/h   21.8 km/h  1%  0.01 mm/h  16.1km  41%  Partly Cloudy 
 18/07/2019 - 22:00  24.1°C  24.2°C  1010.8 hPa  64%  10.0 km/h   23.6 km/h  1%  0.01 mm/h  16.1km  55%  Mostly Cloudy 
 18/07/2019 - 23:00  23.3°C  23.4°C  1010.6 hPa  66%  10.9 km/h   24.2 km/h  2%  0.02 mm/h  16.1km  65%  Mostly Cloudy 
 19/07/2019 - 00:00  22.8°C  23.0°C  1010.2 hPa  69%  10.8 km/h   22.4 km/h  2%  0.02 mm/h  16.1km  65%  Mostly Cloudy 
 19/07/2019 - 01:00  22.6°C  22.7°C  1009.8 hPa  70%  10.4 km/h   19.4 km/h  2%  0.04 mm/h  16.1km  61%  Mostly Cloudy 
 19/07/2019 - 02:00  22.2°C  22.4°C  1009.4 hPa  72%  9.9 km/h   17.6 km/h  3%  0.04 mm/h  16.1km  60%  Mostly Cloudy 
 19/07/2019 - 03:00  21.8°C  22.0°C  1009.1 hPa  75%  9.5 km/h   18.2 km/h  4%  0.03 mm/h  16.1km  66%  Mostly Cloudy 
 19/07/2019 - 04:00  21.5°C  21.7°C  1008.8 hPa  77%  9.0 km/h   19.9 km/h  4%  0.02 mm/h  16.1km  76%  Mostly Cloudy 
 19/07/2019 - 05:00  21.4°C  21.6°C  1008.6 hPa  79%  8.8 km/h   20.7 km/h  4%  0.02 mm/h  16.1km  83%  Mostly Cloudy 
 19/07/2019 - 06:00  21.6°C  21.9°C  1008.3 hPa  80%  9.1 km/h   19.1 km/h  3%  0.04 mm/h  16.1km  83%  Mostly Cloudy 
 19/07/2019 - 07:00  22.3°C  22.7°C  1008.0 hPa  79%  9.7 km/h   16.4 km/h  4%  0.06 mm/h  16.1km  81%  Mostly Cloudy 
 19/07/2019 - 08:00  23.0°C  23.4°C  1007.8 hPa  79%  10.6 km/h   15.3 km/h  4%  0.08 mm/h  16.1km  80%  Mostly Cloudy 
Test

 

Past weather and reports

Past weatherFind in this section the past weather conditions, weather archive, graphics, reports and statistics.

Current conditions

Current weather condition for MontrealAll you need to know about the current weather conditions for Montreal. Weather data is updated every 10 minutes.

Weather forecast

Current Montreal weatherSince 2004, celinium.com website has provided accurate weather forecast for Montreal's island.